Time;durP1;ratioP1;P1;durP2;ratioP2;P2;SDS_P1;SDS_P2;PMS_P1;PMS_P2;Temp;Humidity;BMP_temperature;BMP_pressure;BME280_temperature;BME280_humidity;BME280_pressure;Samples;Min_cycle;Max_cycle;Signal;HPM_P1;HPM_P2
2023/12/10 00:00:06;;;;;;;136.27;59.33;;;16.90;66.90;;;;;;5052410;28;20080;-82
2023/12/10 00:02:32;;;;;;;139.68;60.28;;;17.00;67.30;;;;;;5048137;28;20465;-82
2023/12/10 00:04:58;;;;;;;139.80;60.05;;;17.00;67.20;;;;;;5063462;28;20048;-82
2023/12/10 00:07:23;;;;;;;138.27;59.20;;;17.00;67.10;;;;;;5050859;28;20042;-82
2023/12/10 00:09:49;;;;;;;138.63;59.80;;;17.00;66.70;;;;;;5050012;28;20124;-82
2023/12/10 00:12:15;;;;;;;140.73;60.20;;;16.90;66.90;;;;;;5049832;28;20037;-82
2023/12/10 00:14:40;;;;;;;137.07;59.10;;;16.90;67.10;;;;;;5044720;28;20411;-81
2023/12/10 00:17:06;;;;;;;136.77;58.67;;;17.00;67.10;;;;;;5043628;28;20080;-81
2023/12/10 00:19:33;;;;;;;138.50;59.38;;;16.90;66.80;;;;;;5046809;28;20046;-81
2023/12/10 00:21:59;;;;;;;138.48;58.83;;;16.90;66.90;;;;;;5053256;28;20041;-81
2023/12/10 00:24:25;;;;;;;136.60;59.05;;;16.80;67.00;;;;;;5049606;28;20815;-82
2023/12/10 00:26:50;;;;;;;136.10;59.08;;;16.80;67.00;;;;;;5050400;28;20445;-83
2023/12/10 00:29:16;;;;;;;136.23;59.40;;;16.80;67.10;;;;;;5049816;28;20056;-81
2023/12/10 00:31:43;;;;;;;138.48;59.20;;;16.80;66.90;;;;;;5042565;28;21159;-81
2023/12/10 00:34:09;;;;;;;139.35;60.03;;;16.90;67.00;;;;;;5058535;28;21027;-80
2023/12/10 00:36:35;;;;;;;136.93;58.85;;;16.80;66.70;;;;;;5048061;28;20056;-80
2023/12/10 00:39:04;;;;;;;132.93;58.22;;;16.80;66.90;;;;;;5043009;28;20106;-83
2023/12/10 00:41:30;;;;;;;136.93;59.65;;;16.80;67.00;;;;;;5043123;28;20191;-80
2023/12/10 00:43:56;;;;;;;136.75;59.33;;;16.80;66.80;;;;;;5051691;28;20048;-84
2023/12/10 00:46:21;;;;;;;135.55;58.67;;;16.80;66.90;;;;;;5043307;28;20042;-81
2023/12/10 00:48:47;;;;;;;139.32;60.15;;;16.80;67.10;;;;;;5044833;28;20040;-81
2023/12/10 00:51:22;;;;;;;138.60;59.17;;;16.80;67.10;;;;;;5048740;28;20067;-82
2023/12/10 00:53:49;;;;;;;135.40;58.53;;;16.80;67.00;;;;;;5048998;28;20788;-81
2023/12/10 00:56:16;;;;;;;139.23;59.30;;;16.70;66.80;;;;;;5048659;28;20044;-83
2023/12/10 00:58:41;;;;;;;140.75;58.35;;;16.70;67.00;;;;;;5048241;28;20065;-80
2023/12/10 01:01:07;;;;;;;134.98;58.40;;;16.70;66.80;;;;;;5046497;28;20052;-79
2023/12/10 01:03:34;;;;;;;138.40;58.38;;;16.70;66.80;;;;;;5051120;28;20197;-82
2023/12/10 01:06:01;;;;;;;137.38;59.22;;;16.70;66.80;;;;;;5046971;28;20072;-80
2023/12/10 01:08:26;;;;;;;136.75;58.75;;;16.70;66.70;;;;;;5053461;28;20069;-81
2023/12/10 01:10:52;;;;;;;136.48;58.25;;;16.60;66.80;;;;;;5053388;28;20044;-80
2023/12/10 01:13:18;;;;;;;134.15;58.33;;;16.70;66.80;;;;;;5048921;28;20080;-81
2023/12/10 01:15:43;;;;;;;137.38;58.67;;;16.70;66.90;;;;;;5047037;28;20079;-80
2023/12/10 01:18:10;;;;;;;135.43;58.25;;;16.70;66.90;;;;;;5056013;28;20396;-81
2023/12/10 01:20:37;;;;;;;136.32;58.70;;;16.60;66.70;;;;;;5050449;28;20038;-81
2023/12/10 01:23:07;;;;;;;135.75;58.63;;;16.60;66.70;;;;;;5046831;28;20041;-82
2023/12/10 01:25:32;;;;;;;135.05;58.00;;;16.60;67.00;;;;;;5054245;28;20067;-82
2023/12/10 01:27:58;;;;;;;136.38;58.63;;;16.60;66.90;;;;;;5046462;28;20052;-81
2023/12/10 01:30:24;;;;;;;133.23;58.22;;;16.60;67.00;;;;;;5052278;28;20095;-81
2023/12/10 01:32:56;;;;;;;134.13;58.00;;;16.50;66.80;;;;;;5049471;28;20041;-81
2023/12/10 01:35:22;;;;;;;138.23;58.00;;;16.50;66.90;;;;;;5049604;28;20567;-81
2023/12/10 01:37:48;;;;;;;135.52;58.72;;;16.50;66.90;;;;;;5063713;28;20054;-81
2023/12/10 01:40:14;;;;;;;137.05;58.67;;;16.50;66.70;;;;;;5043261;28;20042;-83
2023/12/10 01:42:44;;;;;;;139.13;58.75;;;16.50;66.80;;;;;;5045881;28;20041;-80
2023/12/10 01:45:10;;;;;;;136.93;59.22;;;16.50;66.90;;;;;;5050482;28;20049;-82
2023/12/10 01:47:40;;;;;;;137.00;58.33;;;16.40;66.70;;;;;;5050264;28;20123;-81
2023/12/10 01:50:08;;;;;;;134.68;58.15;;;16.50;66.90;;;;;;5044942;28;20174;-81
2023/12/10 01:52:34;;;;;;;135.63;58.13;;;16.50;66.70;;;;;;5045434;28;20042;-81
2023/12/10 01:55:03;;;;;;;136.95;58.95;;;16.40;66.70;;;;;;5048900;28;20542;-82
2023/12/10 01:57:32;;;;;;;139.30;59.00;;;16.40;66.70;;;;;;5051807;28;20527;-81
2023/12/10 01:59:58;;;;;;;136.18;59.03;;;16.40;66.90;;;;;;5053246;28;20048;-80
2023/12/10 02:02:25;;;;;;;137.57;59.13;;;16.40;66.80;;;;;;5061913;28;20504;-81
2023/12/10 02:04:54;;;;;;;137.98;59.20;;;16.40;66.70;;;;;;5041612;28;20041;-82
2023/12/10 02:07:21;;;;;;;135.57;58.90;;;16.40;66.70;;;;;;5044666;28;20103;-83
2023/12/10 02:09:47;;;;;;;138.13;58.53;;;16.40;66.70;;;;;;5048757;28;20048;-81
2023/12/10 02:12:13;;;;;;;134.80;58.58;;;16.40;66.60;;;;;;5047490;28;20432;-82
2023/12/10 02:14:39;;;;;;;134.00;58.28;;;16.30;66.60;;;;;;5050920;28;20037;-83
2023/12/10 02:17:05;;;;;;;135.50;57.83;;;16.30;66.80;;;;;;5046508;28;20052;-82
2023/12/10 02:19:31;;;;;;;139.73;59.17;;;16.30;66.80;;;;;;5045848;28;20750;-82
2023/12/10 02:21:59;;;;;;;139.75;58.50;;;16.30;66.60;;;;;;5053456;28;20051;-82
2023/12/10 02:24:35;;;;;;;134.93;58.72;;;16.20;66.80;;;;;;5047287;28;20041;-82
2023/12/10 02:27:00;;;;;;;134.10;58.28;;;16.20;67.00;;;;;;5056257;28;20635;-81
2023/12/10 02:29:26;;;;;;;134.65;58.60;;;16.20;66.80;;;;;;5045627;28;20052;-82
2023/12/10 02:31:54;;;;;;;139.65;58.45;;;16.30;66.80;;;;;;5046271;28;20702;-81
2023/12/10 02:34:20;;;;;;;136.35;58.53;;;16.20;66.30;;;;;;5043187;28;20033;-80
2023/12/10 02:36:46;;;;;;;136.68;58.47;;;16.20;66.40;;;;;;5045257;28;20119;-82
2023/12/10 02:39:12;;;;;;;138.35;58.72;;;16.20;66.80;;;;;;5048765;28;20041;-83
2023/12/10 02:41:38;;;;;;;138.00;58.78;;;16.10;66.50;;;;;;5043301;28;20049;-83
2023/12/10 02:44:04;;;;;;;135.13;57.95;;;16.20;66.70;;;;;;5050180;28;20435;-83
2023/12/10 02:46:29;;;;;;;135.15;58.28;;;16.10;66.40;;;;;;5043191;28;20056;-82
2023/12/10 02:48:55;;;;;;;133.75;57.10;;;16.10;66.70;;;;;;5052254;28;20033;-82
2023/12/10 02:51:21;;;;;;;134.45;58.00;;;16.10;66.60;;;;;;5052766;28;20060;-82
2023/12/10 02:53:46;;;;;;;137.65;58.28;;;16.10;66.70;;;;;;5044796;28;20046;-82
2023/12/10 02:56:12;;;;;;;136.77;57.72;;;16.10;66.50;;;;;;5045188;28;20060;-82
2023/12/10 02:58:38;;;;;;;132.25;56.97;;;16.10;66.70;;;;;;5068055;28;20041;-82
2023/12/10 03:01:03;;;;;;;137.00;58.40;;;16.10;66.50;;;;;;5049136;28;20065;-82
2023/12/10 03:03:29;;;;;;;134.77;58.10;;;16.10;66.50;;;;;;5045608;28;20050;-82
2023/12/10 03:05:56;;;;;;;135.63;58.50;;;16.00;66.60;;;;;;5041413;28;20129;-81
2023/12/10 03:08:22;;;;;;;135.52;58.88;;;16.10;66.60;;;;;;5049774;28;20087;-83
2023/12/10 03:10:48;;;;;;;136.90;58.42;;;16.10;66.60;;;;;;5050554;28;20033;-84
2023/12/10 03:13:13;;;;;;;136.75;58.65;;;16.10;66.50;;;;;;5044889;28;20037;-83
2023/12/10 03:15:39;;;;;;;134.77;58.15;;;16.00;66.40;;;;;;5048792;28;20078;-83
2023/12/10 03:18:05;;;;;;;135.38;58.65;;;16.10;66.60;;;;;;5047532;28;20668;-83
2023/12/10 03:20:31;;;;;;;134.23;58.22;;;16.10;66.60;;;;;;5047475;28;20048;-83
2023/12/10 03:22:57;;;;;;;135.40;58.53;;;16.00;66.40;;;;;;5046025;28;20036;-83
2023/12/10 03:25:23;;;;;;;134.75;58.25;;;16.00;66.50;;;;;;5050386;28;20492;-84
2023/12/10 03:27:49;;;;;;;134.95;58.10;;;16.00;66.80;;;;;;5048109;28;20536;-83
2023/12/10 03:30:14;;;;;;;140.35;59.50;;;16.00;66.60;;;;;;5051018;28;20037;-82
2023/12/10 03:32:40;;;;;;;135.13;57.58;;;16.00;66.60;;;;;;5050868;28;20254;-81
2023/12/10 03:35:06;;;;;;;135.05;58.58;;;16.00;66.40;;;;;;5047113;28;20064;-79
2023/12/10 03:37:31;;;;;;;137.50;58.25;;;16.00;66.60;;;;;;5041063;28;20060;-81
2023/12/10 03:39:57;;;;;;;133.70;57.20;;;16.00;66.80;;;;;;5051247;28;20510;-83
2023/12/10 03:42:23;;;;;;;137.35;58.30;;;16.00;66.60;;;;;;5044498;28;21334;-79
2023/12/10 03:44:48;;;;;;;132.98;57.55;;;15.90;66.50;;;;;;5048808;28;20049;-80
2023/12/10 03:47:14;;;;;;;133.30;56.88;;;15.90;66.60;;;;;;5043557;28;20060;-82
2023/12/10 03:49:40;;;;;;;136.90;58.22;;;15.90;66.70;;;;;;5050922;28;20045;-79
2023/12/10 03:52:05;;;;;;;139.23;58.10;;;15.90;66.70;;;;;;5049954;28;20153;-79
2023/12/10 03:54:31;;;;;;;135.65;58.33;;;15.90;66.60;;;;;;5044546;28;20060;-79
2023/12/10 03:56:57;;;;;;;137.65;58.35;;;15.90;66.80;;;;;;5047444;28;20033;-83
2023/12/10 03:59:22;;;;;;;136.65;59.00;;;15.90;66.60;;;;;;5065781;22;20037;-33
2023/12/10 04:01:48;;;;;;;133.52;57.10;;;15.90;66.50;;;;;;5047599;28;20053;-33
2023/12/10 04:04:14;;;;;;;136.30;58.22;;;15.90;66.60;;;;;;5041125;28;20037;-33
2023/12/10 04:06:40;;;;;;;136.48;58.35;;;15.90;66.60;;;;;;5047411;28;20044;-35
2023/12/10 04:09:09;;;;;;;134.10;57.47;;;15.90;66.50;;;;;;5043818;28;20041;-34
2023/12/10 04:11:36;;;;;;;131.73;57.85;;;15.90;66.60;;;;;;5044491;28;20091;-34
2023/12/10 04:14:02;;;;;;;135.07;56.90;;;15.90;66.70;;;;;;5047152;28;20043;-34
2023/12/10 04:16:29;;;;;;;133.45;57.33;;;15.80;66.60;;;;;;5045721;28;20465;-34
2023/12/10 04:18:55;;;;;;;132.30;57.78;;;15.80;66.80;;;;;;5049862;28;20079;-34
2023/12/10 04:21:22;;;;;;;135.60;57.38;;;15.90;66.70;;;;;;5047787;28;20033;-36
2023/12/10 04:23:48;;;;;;;134.32;57.70;;;15.80;66.60;;;;;;5047290;28;20063;-34
2023/12/10 04:26:15;;;;;;;136.02;57.72;;;15.80;66.60;;;;;;5048068;28;20037;-34
2023/12/10 04:28:41;;;;;;;133.65;57.92;;;15.80;66.60;;;;;;5038777;28;22669;-34
2023/12/10 04:31:07;;;;;;;131.85;58.42;;;15.80;66.80;;;;;;5045637;28;20179;-33
2023/12/10 04:33:33;;;;;;;134.45;57.65;;;15.80;66.70;;;;;;5057599;28;20045;-34
2023/12/10 04:35:59;;;;;;;134.38;57.15;;;15.70;66.70;;;;;;5055753;28;20410;-33
2023/12/10 04:38:25;;;;;;;131.95;56.83;;;15.80;66.90;;;;;;5054698;28;20280;-34
2023/12/10 04:40:51;;;;;;;132.57;57.10;;;15.70;66.60;;;;;;5054849;28;20128;-33
2023/12/10 04:43:17;;;;;;;133.32;57.70;;;15.80;66.80;;;;;;5047619;28;20907;-34
2023/12/10 04:45:42;;;;;;;133.35;56.83;;;15.70;66.70;;;;;;5059187;28;20437;-34
2023/12/10 04:48:08;;;;;;;133.90;57.08;;;15.70;66.90;;;;;;5053939;28;20039;-34
2023/12/10 04:50:34;;;;;;;132.27;57.80;;;15.80;66.90;;;;;;5049085;28;20053;-33
2023/12/10 04:53:00;;;;;;;135.55;56.78;;;15.70;66.70;;;;;;5052909;28;20983;-33
2023/12/10 04:55:25;;;;;;;132.98;57.15;;;15.70;66.80;;;;;;5056570;28;20534;-35
2023/12/10 04:57:51;;;;;;;133.40;56.83;;;15.70;66.90;;;;;;5039885;28;20461;-34
2023/12/10 05:00:16;;;;;;;133.68;57.05;;;15.70;66.90;;;;;;5025475;28;20913;-35
2023/12/10 05:02:42;;;;;;;131.93;57.55;;;15.70;67.00;;;;;;5028822;28;20423;-34
2023/12/10 05:05:08;;;;;;;132.98;57.00;;;15.70;66.90;;;;;;5032339;28;20053;-35
2023/12/10 05:07:35;;;;;;;133.07;56.95;;;15.70;67.00;;;;;;5033936;28;20037;-33
2023/12/10 05:10:01;;;;;;;135.13;58.22;;;15.60;67.00;;;;;;5036951;28;20171;-34
2023/12/10 05:12:26;;;;;;;135.25;56.80;;;15.60;67.00;;;;;;5036598;28;20038;-33
2023/12/10 05:14:52;;;;;;;133.25;57.55;;;15.60;67.00;;;;;;5031856;28;20044;-33
2023/12/10 05:17:18;;;;;;;131.63;57.60;;;15.60;67.00;;;;;;5036309;28;20041;-33
2023/12/10 05:19:43;;;;;;;131.02;56.65;;;15.60;67.10;;;;;;5035273;28;20088;-33
2023/12/10 05:22:09;;;;;;;135.68;57.20;;;15.70;67.10;;;;;;5031644;28;20049;-33
2023/12/10 05:24:35;;;;;;;129.18;56.60;;;15.60;67.00;;;;;;5035568;28;20030;-34
2023/12/10 05:27:00;;;;;;;134.55;57.67;;;15.70;67.20;;;;;;5033847;28;21170;-33
2023/12/10 05:29:26;;;;;;;133.07;56.97;;;15.60;67.10;;;;;;5031240;28;20674;-34
2023/12/10 05:31:51;;;;;;;134.48;56.75;;;15.60;67.10;;;;;;5028584;28;20045;-33
2023/12/10 05:34:17;;;;;;;132.75;56.67;;;15.60;67.10;;;;;;5032647;28;20033;-34
2023/12/10 05:36:43;;;;;;;135.70;57.47;;;15.60;67.10;;;;;;5033315;28;20037;-33
2023/12/10 05:39:08;;;;;;;133.48;56.95;;;15.60;67.20;;;;;;5032223;28;20042;-34
2023/12/10 05:41:34;;;;;;;129.85;56.60;;;15.60;67.10;;;;;;5031936;28;20044;-33
2023/12/10 05:44:00;;;;;;;131.95;56.75;;;15.60;67.20;;;;;;5033831;28;20534;-34
2023/12/10 05:46:25;;;;;;;132.85;56.85;;;15.60;67.30;;;;;;5027617;28;20042;-34
2023/12/10 05:48:51;;;;;;;135.05;56.28;;;15.60;67.20;;;;;;5038220;28;20045;-33
2023/12/10 05:51:17;;;;;;;129.90;56.53;;;15.60;67.40;;;;;;5032322;28;20053;-34
2023/12/10 05:53:43;;;;;;;131.40;57.20;;;15.60;67.50;;;;;;5029120;28;20034;-34
2023/12/10 05:56:09;;;;;;;135.95;57.00;;;15.60;67.50;;;;;;5029354;28;20038;-34
2023/12/10 05:58:35;;;;;;;134.50;57.05;;;15.60;67.50;;;;;;5036938;28;20044;-34
2023/12/10 06:01:01;;;;;;;133.05;56.95;;;15.60;67.50;;;;;;5022193;28;20077;-33
2023/12/10 06:03:28;;;;;;;130.73;56.33;;;15.60;67.60;;;;;;5036659;28;20482;-34
2023/12/10 06:05:53;;;;;;;130.88;56.53;;;15.50;67.60;;;;;;5033724;28;20060;-34
2023/12/10 06:08:19;;;;;;;132.23;56.50;;;15.60;67.70;;;;;;5037862;28;20518;-33
2023/12/10 06:10:44;;;;;;;130.50;56.33;;;15.60;67.60;;;;;;5027020;28;20775;-33
2023/12/10 06:13:10;;;;;;;133.55;57.25;;;15.50;67.50;;;;;;5029737;28;20120;-33
2023/12/10 06:15:36;;;;;;;132.05;56.90;;;15.50;67.60;;;;;;5031685;28;20037;-37
2023/12/10 06:18:02;;;;;;;133.63;57.00;;;15.50;67.70;;;;;;5027046;28;20132;-38
2023/12/10 06:20:28;;;;;;;132.43;56.95;;;15.50;67.80;;;;;;5029208;28;20160;-40
2023/12/10 06:22:53;;;;;;;131.82;57.35;;;15.50;67.80;;;;;;5038387;28;20083;-44
2023/12/10 06:25:19;;;;;;;130.32;56.95;;;15.50;67.80;;;;;;5028827;28;20128;-44
2023/12/10 06:27:45;;;;;;;132.07;57.47;;;15.50;68.00;;;;;;5072492;22;20052;-84
2023/12/10 06:30:11;;;;;;;132.43;57.38;;;15.50;67.90;;;;;;5050044;28;20056;-82
2023/12/10 06:32:37;;;;;;;133.52;57.70;;;15.50;67.80;;;;;;5053251;28;20045;-84
2023/12/10 06:35:03;;;;;;;133.65;57.42;;;15.50;67.80;;;;;;5052352;28;20051;-86
2023/12/10 06:37:30;;;;;;;135.18;57.92;;;15.50;67.80;;;;;;5057086;28;20045;-80
2023/12/10 06:39:56;;;;;;;132.70;57.50;;;15.50;68.10;;;;;;5051771;28;20128;-81
2023/12/10 06:42:22;;;;;;;131.07;56.78;;;15.50;68.10;;;;;;5054735;28;20150;-83
2023/12/10 06:44:47;;;;;;;132.55;57.55;;;15.50;68.00;;;;;;5051065;28;20041;-82
2023/12/10 06:47:13;;;;;;;131.05;57.63;;;15.50;68.10;;;;;;5057388;28;20038;-84
2023/12/10 06:49:39;;;;;;;137.07;58.00;;;15.50;68.00;;;;;;5055302;28;20095;-82
2023/12/10 06:52:05;;;;;;;134.77;57.58;;;15.50;68.00;;;;;;5055971;28;20099;-82
2023/12/10 06:54:31;;;;;;;133.43;57.97;;;15.50;68.00;;;;;;5048023;28;20508;-81
2023/12/10 06:56:56;;;;;;;134.85;58.10;;;15.50;68.20;;;;;;5047893;28;21411;-82
2023/12/10 06:59:22;;;;;;;133.07;57.70;;;15.50;68.10;;;;;;5049348;28;20511;-81
2023/12/10 07:01:48;;;;;;;132.38;57.55;;;15.50;68.10;;;;;;5050215;28;20354;-81
2023/12/10 07:04:13;;;;;;;131.20;57.92;;;15.50;68.20;;;;;;5053645;28;20443;-81
2023/12/10 07:06:39;;;;;;;132.23;58.10;;;15.50;68.30;;;;;;5049027;28;20041;-81
2023/12/10 07:09:07;;;;;;;130.10;57.25;;;15.50;68.30;;;;;;5050203;28;21098;-82
2023/12/10 07:11:33;;;;;;;130.73;57.05;;;15.40;68.30;;;;;;5053174;28;20108;-82
2023/12/10 07:13:59;;;;;;;134.98;57.85;;;15.50;68.30;;;;;;5051753;28;20044;-81
2023/12/10 07:16:25;;;;;;;132.13;57.72;;;15.40;68.20;;;;;;5049658;28;20523;-82
2023/12/10 07:18:51;;;;;;;131.30;57.35;;;15.40;68.20;;;;;;5056201;28;20068;-82
2023/12/10 07:21:17;;;;;;;132.48;57.83;;;15.40;68.10;;;;;;5052481;28;20726;-83
2023/12/10 07:23:42;;;;;;;132.48;57.65;;;15.50;68.20;;;;;;5053893;28;20176;-82
2023/12/10 07:26:08;;;;;;;132.93;57.55;;;15.40;68.20;;;;;;5043685;28;20100;-81
2023/12/10 07:28:34;;;;;;;130.77;57.55;;;15.50;68.30;;;;;;5033182;28;20062;-80
2023/12/10 07:31:00;;;;;;;131.50;56.80;;;15.40;68.30;;;;;;5032547;28;21177;-82
2023/12/10 07:33:25;;;;;;;128.57;56.05;;;15.40;68.20;;;;;;5032686;28;20073;-83
2023/12/10 07:35:51;;;;;;;130.00;57.38;;;15.40;68.30;;;;;;5035405;28;20037;-81
2023/12/10 07:38:16;;;;;;;131.82;58.10;;;15.40;68.40;;;;;;5033095;28;20136;-81
2023/12/10 07:40:42;;;;;;;132.55;57.13;;;15.40;68.40;;;;;;5031053;28;20078;-81
2023/12/10 07:43:08;;;;;;;130.20;56.38;;;15.40;68.50;;;;;;5033049;28;20033;-81
2023/12/10 07:45:34;;;;;;;131.77;57.30;;;15.40;68.50;;;;;;5035405;28;20052;-81
2023/12/10 07:47:59;;;;;;;131.07;56.60;;;15.40;68.40;;;;;;5037511;28;20108;-82
2023/12/10 07:50:25;;;;;;;132.27;57.78;;;15.40;68.40;;;;;;5029959;28;20048;-81
2023/12/10 07:52:51;;;;;;;133.00;56.80;;;15.50;68.50;;;;;;5035598;28;20034;-79
2023/12/10 07:55:16;;;;;;;131.68;57.03;;;15.50;68.60;;;;;;5038239;28;20056;-81
2023/12/10 07:57:42;;;;;;;137.48;57.75;;;15.50;68.60;;;;;;5037892;28;20041;-81
2023/12/10 08:00:08;;;;;;;132.93;57.20;;;15.50;68.80;;;;;;5049242;28;20124;-81
2023/12/10 08:02:34;;;;;;;130.43;57.38;;;15.40;68.80;;;;;;5033762;28;20038;-81
2023/12/10 08:05:00;;;;;;;134.50;57.40;;;15.50;68.80;;;;;;5028301;28;20037;-82
2023/12/10 08:07:26;;;;;;;132.10;56.95;;;15.50;68.90;;;;;;5030284;28;20050;-82
2023/12/10 08:09:51;;;;;;;134.32;57.13;;;15.50;68.80;;;;;;5039413;28;20440;-83
2023/12/10 08:12:17;;;;;;;132.80;57.65;;;15.50;68.90;;;;;;5033766;28;20042;-83
2023/12/10 08:14:44;;;;;;;132.85;57.15;;;15.50;68.80;;;;;;5038931;28;20143;-83
2023/12/10 08:17:10;;;;;;;136.93;58.03;;;15.50;68.70;;;;;;5035113;28;20042;-83
2023/12/10 08:19:37;;;;;;;132.93;57.80;;;15.40;68.70;;;;;;5034489;28;20090;-83
2023/12/10 08:22:03;;;;;;;133.45;57.25;;;15.40;68.70;;;;;;5036926;28;20124;-83
2023/12/10 08:24:29;;;;;;;128.63;56.47;;;15.40;68.60;;;;;;5031300;28;20056;-82
2023/12/10 08:26:55;;;;;;;131.70;56.90;;;15.40;68.70;;;;;;5036260;28;20152;-82
2023/12/10 08:29:20;;;;;;;133.38;57.42;;;15.40;68.80;;;;;;5030536;28;20631;-82
2023/12/10 08:31:46;;;;;;;133.40;57.25;;;15.40;69.00;;;;;;5035956;28;20046;-82
2023/12/10 08:34:12;;;;;;;135.98;57.85;;;15.40;69.30;;;;;;5035518;28;20509;-86
2023/12/10 08:36:40;;;;;;;133.25;57.80;;;15.50;69.60;;;;;;5033213;28;20124;-84
2023/12/10 08:39:06;;;;;;;154.25;72.88;;;15.50;69.50;;;;;;5034974;28;20043;-84
2023/12/10 08:41:32;;;;;;;182.93;93.07;;;15.60;69.50;;;;;;5041360;28;20463;-84
2023/12/10 08:43:58;;;;;;;170.80;83.63;;;15.60;69.40;;;;;;5034442;28;20041;-82
2023/12/10 08:46:24;;;;;;;166.40;79.50;;;15.70;69.40;;;;;;5041267;28;20049;-81
2023/12/10 08:48:50;;;;;;;160.73;78.47;;;15.70;69.20;;;;;;5040104;28;20069;-81
2023/12/10 08:51:15;;;;;;;160.32;76.28;;;15.80;69.10;;;;;;5037226;28;20040;-82
2023/12/10 08:53:41;;;;;;;158.13;76.05;;;15.80;68.90;;;;;;5035808;28;20049;-84
2023/12/10 08:56:07;;;;;;;155.00;74.90;;;15.90;68.70;;;;;;5038104;28;20147;-83
2023/12/10 08:58:33;;;;;;;155.75;73.45;;;15.90;68.60;;;;;;5033627;28;20041;-83
2023/12/10 09:00:59;;;;;;;153.82;71.93;;;16.00;68.40;;;;;;5034764;28;20275;-81
2023/12/10 09:03:25;;;;;;;152.77;71.78;;;16.10;68.40;;;;;;5034482;28;20088;-81
2023/12/10 09:05:51;;;;;;;152.32;72.32;;;16.10;68.10;;;;;;5034580;28;20124;-82
2023/12/10 09:08:17;;;;;;;152.13;70.38;;;16.20;68.00;;;;;;5034768;28;20049;-82
2023/12/10 09:10:44;;;;;;;149.07;69.03;;;16.20;67.90;;;;;;5043802;28;20045;-84
2023/12/10 09:13:09;;;;;;;155.45;71.60;;;16.20;67.80;;;;;;5040428;28;20098;-83
2023/12/10 09:15:35;;;;;;;152.15;70.97;;;16.30;67.70;;;;;;5038985;28;20049;-85
2023/12/10 09:18:02;;;;;;;151.75;69.60;;;16.30;67.60;;;;;;5045482;28;22966;-83
2023/12/10 09:20:28;;;;;;;148.57;69.90;;;16.40;67.80;;;;;;5040780;28;20512;-85
2023/12/10 09:22:53;;;;;;;148.05;68.47;;;16.50;67.50;;;;;;5045404;28;20042;-84
2023/12/10 09:25:19;;;;;;;153.32;68.68;;;16.60;67.20;;;;;;5038769;28;20072;-84
2023/12/10 09:27:45;;;;;;;148.82;67.10;;;16.70;66.80;;;;;;5040008;28;20049;-85
2023/12/10 09:30:10;;;;;;;146.27;66.97;;;16.80;66.70;;;;;;5040513;28;20049;-84
2023/12/10 09:32:39;;;;;;;148.70;67.65;;;16.80;66.30;;;;;;5042955;28;20311;-85
2023/12/10 09:35:05;;;;;;;148.60;66.03;;;16.80;66.30;;;;;;5038566;28;20041;-86
2023/12/10 09:37:31;;;;;;;145.95;65.90;;;16.90;66.10;;;;;;5041350;28;20044;-85
2023/12/10 09:39:56;;;;;;;141.35;64.85;;;16.90;66.20;;;;;;5043706;28;20045;-85
2023/12/10 09:42:22;;;;;;;146.48;65.22;;;16.90;66.20;;;;;;5043970;28;20104;-83
2023/12/10 09:44:48;;;;;;;145.50;64.97;;;16.90;66.20;;;;;;5060755;28;20040;-82
2023/12/10 09:47:14;;;;;;;141.40;63.58;;;17.00;66.30;;;;;;5067799;28;20049;-83
2023/12/10 09:49:41;;;;;;;145.80;65.60;;;17.00;66.10;;;;;;5074007;22;20112;-34
2023/12/10 09:52:08;;;;;;;148.45;64.60;;;17.00;66.30;;;;;;5050679;28;20143;-35
2023/12/10 09:54:37;;;;;;;144.55;64.63;;;17.00;66.50;;;;;;5049212;28;20638;-34
2023/12/10 09:57:03;;;;;;;144.00;64.88;;;17.00;66.40;;;;;;5050658;28;20096;-34
2023/12/10 09:59:28;;;;;;;145.55;64.07;;;17.00;66.60;;;;;;5048304;28;20040;-34
2023/12/10 10:01:54;;;;;;;140.95;64.07;;;17.10;66.70;;;;;;5050500;28;20033;-34
2023/12/10 10:04:20;;;;;;;141.55;62.20;;;17.10;66.70;;;;;;5050711;28;20106;-34
2023/12/10 10:06:46;;;;;;;140.73;63.42;;;17.10;66.70;;;;;;5044645;28;20041;-34
2023/12/10 10:09:11;;;;;;;139.63;62.78;;;17.10;66.90;;;;;;5048554;28;20041;-35
2023/12/10 10:11:38;;;;;;;142.23;62.63;;;17.20;66.90;;;;;;5047762;28;21216;-34
2023/12/10 10:14:04;;;;;;;143.13;63.80;;;17.30;66.60;;;;;;5049151;28;20490;-34
2023/12/10 10:16:33;;;;;;;145.57;64.70;;;17.40;66.50;;;;;;5033681;28;20082;-39
2023/12/10 10:18:59;;;;;;;145.85;64.72;;;17.40;66.30;;;;;;5043298;28;21135;-38
2023/12/10 10:21:25;;;;;;;143.98;64.97;;;17.40;66.60;;;;;;5049075;28;20118;-36
2023/12/10 10:23:51;;;;;;;145.23;63.63;;;17.50;66.80;;;;;;5047850;28;20160;-44
2023/12/10 10:26:20;;;;;;;146.55;63.38;;;17.60;66.80;;;;;;5047922;28;20037;-38
2023/12/10 10:28:46;;;;;;;143.32;62.78;;;17.70;66.50;;;;;;5052588;28;20029;-38
2023/12/10 10:31:12;;;;;;;139.82;62.33;;;17.70;66.60;;;;;;5055076;28;20079;-41
2023/12/10 10:33:38;;;;;;;142.18;63.25;;;17.80;66.80;;;;;;5048773;28;20577;-39
2023/12/10 10:36:05;;;;;;;146.75;63.75;;;17.80;66.80;;;;;;5048085;28;20615;-38
2023/12/10 10:38:32;;;;;;;143.43;63.38;;;17.80;66.30;;;;;;5045440;28;20445;-40
2023/12/10 10:41:00;;;;;;;143.88;63.58;;;17.80;66.40;;;;;;5078413;22;20428;-80
2023/12/10 10:43:26;;;;;;;144.38;62.53;;;17.80;66.60;;;;;;5063570;28;20426;-83
2023/12/10 10:45:55;;;;;;;144.07;63.15;;;17.80;66.60;;;;;;5063855;28;21214;-82
2023/12/10 10:48:26;;;;;;;142.13;62.83;;;17.80;66.60;;;;;;5066818;28;20223;-80
2023/12/10 10:50:53;;;;;;;141.52;62.53;;;17.80;66.80;;;;;;5066267;28;20127;-78
2023/12/10 10:53:20;;;;;;;144.23;63.45;;;17.70;67.20;;;;;;5063865;28;20143;-80
2023/12/10 10:55:48;;;;;;;143.07;63.38;;;17.70;67.70;;;;;;5063817;28;20128;-79
2023/12/10 10:58:28;;;;;;;141.77;62.38;;;17.70;68.10;;;;;;5065932;28;20037;-77
2023/12/10 11:00:57;;;;;;;141.30;62.42;;;17.70;68.40;;;;;;5075620;28;20047;-78
2023/12/10 11:03:27;;;;;;;142.45;62.70;;;17.70;68.60;;;;;;5070815;28;20431;-78
2023/12/10 11:06:01;;;;;;;142.95;62.25;;;17.80;69.00;;;;;;5067571;28;20064;-84
2023/12/10 11:08:28;;;;;;;138.60;61.05;;;17.80;68.90;;;;;;5069492;28;20114;-83
2023/12/10 11:11:00;;;;;;;142.32;61.92;;;17.90;68.40;;;;;;5067950;28;20801;-83
2023/12/10 11:13:44;;;;;;;144.18;62.15;;;17.80;68.10;;;;;;5066145;28;20048;-83
2023/12/10 11:16:09;;;;;;;138.10;60.67;;;17.80;67.90;;;;;;5070801;28;20100;-82
2023/12/10 11:18:56;;;;;;;139.43;61.20;;;17.80;68.00;;;;;;5068994;28;20508;-82
2023/12/10 11:21:22;;;;;;;139.60;61.63;;;17.80;67.70;;;;;;5073145;28;20096;-82
2023/12/10 11:23:48;;;;;;;138.70;60.90;;;17.70;67.50;;;;;;5069038;28;20045;-82
2023/12/10 11:26:14;;;;;;;138.07;61.10;;;17.70;67.60;;;;;;5063804;28;20037;-83
2023/12/10 11:28:44;;;;;;;139.65;61.20;;;17.70;67.20;;;;;;5053333;28;20049;-81
2023/12/10 11:31:10;;;;;;;140.30;61.05;;;17.70;67.10;;;;;;5054350;28;20048;-83
2023/12/10 11:33:40;;;;;;;137.68;59.95;;;17.70;67.00;;;;;;5055169;28;20049;-81
2023/12/10 11:36:09;;;;;;;141.85;60.75;;;17.80;66.90;;;;;;5050691;28;20040;-82
2023/12/10 11:38:35;;;;;;;138.15;60.55;;;17.70;66.70;;;;;;5052010;28;20045;-83
2023/12/10 11:41:02;;;;;;;138.95;60.75;;;17.70;66.60;;;;;;5051305;28;20052;-82
2023/12/10 11:43:27;;;;;;;136.65;60.22;;;17.70;66.70;;;;;;5048277;28;20164;-82
2023/12/10 11:45:54;;;;;;;140.85;61.05;;;17.70;66.40;;;;;;5048731;28;20087;-82
2023/12/10 11:48:20;;;;;;;138.13;61.40;;;17.70;66.20;;;;;;5049881;28;20561;-83
2023/12/10 11:50:46;;;;;;;138.57;59.92;;;17.70;66.30;;;;;;5050507;28;20033;-82
2023/12/10 11:53:16;;;;;;;137.57;60.58;;;17.70;66.20;;;;;;5061170;28;20056;-81
2023/12/10 11:55:42;;;;;;;137.75;60.40;;;17.80;66.20;;;;;;5053565;28;20048;-81
2023/12/10 11:58:08;;;;;;;137.30;60.80;;;17.70;66.00;;;;;;5049029;28;20071;-78
2023/12/10 12:00:34;;;;;;;137.40;60.42;;;17.70;65.90;;;;;;5050486;28;20106;-80
2023/12/10 12:03:05;;;;;;;137.65;59.42;;;17.70;65.80;;;;;;5049491;28;20122;-79
2023/12/10 12:05:31;;;;;;;138.20;59.75;;;17.70;65.90;;;;;;5052213;28;20082;-81
2023/12/10 12:07:57;;;;;;;138.40;59.85;;;17.70;65.70;;;;;;5049636;28;21108;-80
2023/12/10 12:10:23;;;;;;;137.40;59.92;;;17.80;65.80;;;;;;5050114;28;20105;-80
2023/12/10 12:12:48;;;;;;;137.35;60.30;;;17.70;65.70;;;;;;5051300;28;20048;-81